Time;durP1;ratioP1;P1;durP2;ratioP2;P2;SDS_P1;SDS_P2;PMS_P1;PMS_P2;Temp;Humidity;BMP_temperature;BMP_pressure;BME280_temperature;BME280_humidity;BME280_pressure;Samples;Min_cycle;Max_cycle;Signal;HPM_P1;HPM_P2
2023/05/06 00:00:06;;;;;;;;;;;;;;;22.59;46.51;101211.13;7250442;19;156868;-58
2023/05/06 00:02:33;;;;;;;;;;;;;;;22.60;46.64;101210.00;7256704;19;153971;-58
2023/05/06 00:05:02;;;;;;;;;;;;;;;22.61;46.83;101214.50;7254611;19;154321;-59
2023/05/06 00:07:29;;;;;;;;;;;;;;;22.61;47.05;101228.56;7255656;19;154347;-58
2023/05/06 00:09:56;;;;;;;;;;;;;;;22.61;47.08;101216.47;7252448;19;154256;-58
2023/05/06 00:12:23;;;;;;;;;;;;;;;22.61;47.01;101220.13;7252641;19;153493;-59
2023/05/06 00:14:50;;;;;;;;;;;;;;;22.60;47.04;101221.25;7259073;19;154377;-59
2023/05/06 00:17:17;;;;;;;;;;;;;;;22.60;47.21;101221.25;7254602;19;153424;-59
2023/05/06 00:19:44;;;;;;;;;;;;;;;22.60;47.22;101221.25;7251590;19;153957;-57
2023/05/06 00:22:11;;;;;;;;;;;;;;;22.59;47.22;101224.38;7251339;19;152897;-59
2023/05/06 00:24:39;;;;;;;;;;;;;;;22.59;47.18;101213.13;7090630;19;3155964;-58
2023/05/06 00:27:06;;;;;;;;;;;;;;;22.57;47.02;101227.53;7259800;19;154024;-59
2023/05/06 00:29:33;;;;;;;;;;;;;;;22.57;47.12;101221.06;7253342;19;153479;-59
2023/05/06 00:32:00;;;;;;;;;;;;;;;22.53;47.49;101220.84;7250685;19;153145;-59
2023/05/06 00:34:27;;;;;;;;;;;;;;;22.53;47.80;101220.03;7256449;19;154172;-59
2023/05/06 00:36:55;;;;;;;;;;;;;;;22.52;47.77;101201.47;7265840;19;152853;-59
2023/05/06 00:39:22;;;;;;;;;;;;;;;22.53;47.70;101203.13;7252897;19;153698;-59
2023/05/06 00:41:49;;;;;;;;;;;;;;;22.49;48.09;101191.66;7257038;19;153596;-59
2023/05/06 00:44:17;;;;;;;;;;;;;;;22.48;48.20;101189.16;7254969;19;153763;-58
2023/05/06 00:46:44;;;;;;;;;;;;;;;22.49;48.31;101202.06;7257410;19;153775;-57
2023/05/06 00:49:12;;;;;;;;;;;;;;;22.46;48.35;101189.47;7253261;19;153322;-57
2023/05/06 00:51:39;;;;;;;;;;;;;;;22.48;48.48;101200.44;7255038;19;154468;-57
2023/05/06 00:54:06;;;;;;;;;;;;;;;22.46;48.37;101199.91;7254623;19;153848;-57
2023/05/06 00:56:33;;;;;;;;;;;;;;;22.46;48.86;101197.94;7255331;19;152803;-59
2023/05/06 00:59:00;;;;;;;;;;;;;;;22.44;48.99;101188.94;7264280;19;154278;-59
2023/05/06 01:01:29;;;;;;;;;;;;;;;22.42;49.05;101188.44;7255572;19;154962;-58
2023/05/06 01:03:57;;;;;;;;;;;;;;;22.41;49.07;101183.13;7254915;19;153919;-59
2023/05/06 01:06:27;;;;;;;;;;;;;;;22.41;49.34;101177.47;7257405;19;153997;-58
2023/05/06 01:08:55;;;;;;;;;;;;;;;22.41;49.19;101177.47;7257070;19;152668;-58
2023/05/06 01:11:26;;;;;;;;;;;;;;;22.39;49.41;101176.97;7255893;19;154037;-58
2023/05/06 01:13:56;;;;;;;;;;;;;;;22.38;49.34;101176.16;7255446;19;152262;-58
2023/05/06 01:16:26;;;;;;;;;;;;;;;22.38;49.75;101181.78;7251510;19;154167;-58
2023/05/06 01:18:53;;;;;;;;;;;;;;;22.37;49.82;101173.63;7258074;19;153536;-59
2023/05/06 01:21:21;;;;;;;;;;;;;;;22.36;49.63;101177.59;7265033;19;154447;-59
2023/05/06 01:23:48;;;;;;;;;;;;;;;22.36;49.45;101178.44;7256237;19;153601;-59
2023/05/06 01:26:16;;;;;;;;;;;;;;;22.35;49.78;101179.56;7257077;19;153221;-59
2023/05/06 01:28:43;;;;;;;;;;;;;;;22.34;50.01;101172.31;7252278;19;153519;-59
2023/05/06 01:31:12;;;;;;;;;;;;;;;22.32;49.91;101173.75;7250792;19;153799;-58
2023/05/06 01:33:42;;;;;;;;;;;;;;;22.32;49.76;101183.03;7254721;19;154022;-59
2023/05/06 01:36:14;;;;;;;;;;;;;;;22.31;50.13;101175.72;7255428;19;154701;-59
2023/05/06 01:38:42;;;;;;;;;;;;;;;22.33;49.87;101176.25;7254074;19;152654;-59
2023/05/06 01:41:12;;;;;;;;;;;;;;;22.30;50.55;101173.25;7260105;19;153119;-59
2023/05/06 01:43:40;;;;;;;;;;;;;;;22.30;50.22;101176.91;7255535;19;154092;-59
2023/05/06 01:46:10;;;;;;;;;;;;;;;22.28;50.27;101179.19;7247353;19;154846;-60
2023/05/06 01:48:38;;;;;;;;;;;;;;;22.28;50.34;101182.00;7253436;19;154503;-60
2023/05/06 01:51:05;;;;;;;;;;;;;;;22.28;50.33;101176.38;7254376;19;152776;-59
2023/05/06 01:53:32;;;;;;;;;;;;;;;22.28;50.68;101172.72;7254738;19;155460;-59
2023/05/06 01:56:00;;;;;;;;;;;;;;;22.26;51.00;101175.84;7252210;19;156011;-59
2023/05/06 01:58:27;;;;;;;;;;;;;;;22.26;51.16;101177.84;7254761;19;152279;-58
2023/05/06 02:00:54;;;;;;;;;;;;;;;22.25;51.04;101177.00;7249673;19;155064;-58
2023/05/06 02:03:21;;;;;;;;;;;;;;;22.25;51.01;101177.00;7261012;19;154355;-58
2023/05/06 02:05:48;;;;;;;;;;;;;;;22.25;50.87;101178.97;7252411;19;154104;-58
2023/05/06 02:08:15;;;;;;;;;;;;;;;22.24;51.00;101164.06;7253439;19;154654;-58
2023/05/06 02:10:42;;;;;;;;;;;;;;;22.23;51.34;101162.41;7253272;19;155025;-58
2023/05/06 02:13:10;;;;;;;;;;;;;;;22.24;51.13;101168.88;7253892;19;153012;-58
2023/05/06 02:15:37;;;;;;;;;;;;;;;22.23;51.54;101170.84;7250947;19;153914;-58
2023/05/06 02:18:04;;;;;;;;;;;;;;;22.21;51.55;101167.53;7255048;19;153321;-58
2023/05/06 02:20:31;;;;;;;;;;;;;;;22.21;51.51;101166.69;7255005;19;153730;-58
2023/05/06 02:22:58;;;;;;;;;;;;;;;22.21;51.95;101161.91;7257089;19;154191;-58
2023/05/06 02:25:25;;;;;;;;;;;;;;;22.21;51.73;101163.88;7256081;19;154405;-58
2023/05/06 02:27:52;;;;;;;;;;;;;;;22.21;51.93;101169.50;7250321;19;153246;-58
2023/05/06 02:30:19;;;;;;;;;;;;;;;22.20;51.94;101170.66;7253237;19;154591;-58
2023/05/06 02:32:46;;;;;;;;;;;;;;;22.20;52.12;101170.66;7255374;19;155228;-58
2023/05/06 02:35:13;;;;;;;;;;;;;;;22.20;51.97;101170.66;7254118;19;153617;-58
2023/05/06 02:37:40;;;;;;;;;;;;;;;22.18;52.08;101165.31;7252506;19;153352;-59
2023/05/06 02:40:08;;;;;;;;;;;;;;;22.16;52.30;101165.66;7249701;19;152954;-59
2023/05/06 02:42:35;;;;;;;;;;;;;;;22.17;52.34;101166.47;7252923;19;155920;-59
2023/05/06 02:45:03;;;;;;;;;;;;;;;22.17;52.25;101163.66;7249576;19;152338;-59
2023/05/06 02:47:31;;;;;;;;;;;;;;;22.17;52.22;101160.84;7259280;19;153560;-59
2023/05/06 02:49:58;;;;;;;;;;;;;;;22.16;52.30;101156.38;7249851;19;153980;-60
2023/05/06 02:52:25;;;;;;;;;;;;;;;22.14;52.23;101159.50;7252184;19;154542;-59
2023/05/06 02:54:52;;;;;;;;;;;;;;;22.15;52.23;101157.50;7248093;19;153530;-59
2023/05/06 02:57:19;;;;;;;;;;;;;;;22.14;52.23;101158.66;7257324;19;153052;-58
2023/05/06 02:59:46;;;;;;;;;;;;;;;22.14;52.22;101153.03;7255402;19;153767;-58
2023/05/06 03:02:13;;;;;;;;;;;;;;;22.13;52.66;101157.81;7258563;19;154789;-59
2023/05/06 03:04:40;;;;;;;;;;;;;;;22.12;52.70;101158.16;7258743;19;153274;-58
2023/05/06 03:07:07;;;;;;;;;;;;;;;22.11;52.70;101156.47;7262380;19;154078;-58
2023/05/06 03:09:34;;;;;;;;;;;;;;;22.12;52.68;101146.91;7265320;19;154391;-58
2023/05/06 03:12:02;;;;;;;;;;;;;;;22.10;52.55;101149.19;7256014;19;156217;-58
2023/05/06 03:14:29;;;;;;;;;;;;;;;22.11;52.36;101148.03;7259003;19;154430;-59
2023/05/06 03:16:56;;;;;;;;;;;;;;;22.10;52.49;101147.19;7260759;19;153260;-58
2023/05/06 03:19:23;;;;;;;;;;;;;;;22.10;52.78;101143.56;7257797;19;156517;-58
2023/05/06 03:21:50;;;;;;;;;;;;;;;22.10;52.47;101138.75;7259609;19;155450;-61
2023/05/06 03:24:17;;;;;;;;;;;;;;;22.09;52.60;101136.25;7257192;19;153800;-60
2023/05/06 03:26:44;;;;;;;;;;;;;;;22.07;52.49;101144.19;7254909;19;154157;-59
2023/05/06 03:29:11;;;;;;;;;;;;;;;22.09;52.67;101141.88;7254677;19;154229;-59
2023/05/06 03:31:38;;;;;;;;;;;;;;;22.06;52.78;101136.88;7264165;19;153637;-59
2023/05/06 03:34:05;;;;;;;;;;;;;;;22.06;52.97;101134.91;7255396;19;155426;-59
2023/05/06 03:36:32;;;;;;;;;;;;;;;22.04;52.87;101130.72;7261142;19;152178;-59
2023/05/06 03:38:59;;;;;;;;;;;;;;;22.04;52.79;101133.53;7256853;19;154462;-59
2023/05/06 03:41:26;;;;;;;;;;;;;;;22.05;53.01;101138.03;7255596;19;154203;-58
2023/05/06 03:43:54;;;;;;;;;;;;;;;22.03;52.89;101143.16;7258434;19;152230;-58
2023/05/06 03:46:21;;;;;;;;;;;;;;;22.01;52.79;101132.19;7254528;19;153024;-58
2023/05/06 03:48:48;;;;;;;;;;;;;;;22.02;53.03;101135.84;7259271;19;154722;-58
2023/05/06 03:51:15;;;;;;;;;;;;;;;22.01;53.37;101134.19;7267852;19;153949;-58
2023/05/06 03:53:42;;;;;;;;;;;;;;;22.02;53.08;101141.47;7256100;19;154259;-58
2023/05/06 03:56:09;;;;;;;;;;;;;;;21.99;53.18;101137.31;7254986;19;152069;-59
2023/05/06 03:58:36;;;;;;;;;;;;;;;22.00;53.05;101138.13;7256533;19;153480;-59
2023/05/06 04:01:03;;;;;;;;;;;;;;;21.99;53.47;101139.28;7257096;19;156770;-59
2023/05/06 04:03:30;;;;;;;;;;;;;;;21.97;53.38;101133.97;7257644;19;153443;-58
2023/05/06 04:05:58;;;;;;;;;;;;;;;21.99;53.53;101142.94;7255405;19;155279;-57
2023/05/06 04:08:25;;;;;;;;;;;;;;;21.97;53.48;101135.97;7257054;19;155361;-57
2023/05/06 04:10:52;;;;;;;;;;;;;;;21.96;54.01;101128.66;7253889;19;154423;-57
2023/05/06 04:13:19;;;;;;;;;;;;;;;21.96;53.95;101131.47;7262889;19;152981;-57
2023/05/06 04:15:47;;;;;;;;;;;;;;;21.95;53.59;101125.00;7258474;19;153349;-57
2023/05/06 04:18:17;;;;;;;;;;;;;;;21.95;53.69;101116.56;7260188;19;154127;-57
2023/05/06 04:20:45;;;;;;;;;;;;;;;21.93;53.79;101116.06;7258011;19;154218;-58
2023/05/06 04:23:13;;;;;;;;;;;;;;;21.93;53.66;101110.44;7258684;19;153558;-57
2023/05/06 04:25:41;;;;;;;;;;;;;;;21.93;53.77;101118.03;7260639;19;154760;-58
2023/05/06 04:28:09;;;;;;;;;;;;;;;21.92;54.12;101117.19;7259876;19;153772;-57
2023/05/06 04:30:36;;;;;;;;;;;;;;;21.93;53.78;101120.84;7257210;19;153848;-57
2023/05/06 04:33:04;;;;;;;;;;;;;;;21.92;53.95;101119.16;7258546;19;154881;-57
2023/05/06 04:35:31;;;;;;;;;;;;;;;21.92;54.03;101121.97;7262038;19;154847;-57
2023/05/06 04:37:58;;;;;;;;;;;;;;;21.91;54.12;101120.28;7259168;19;153656;-57
2023/05/06 04:40:26;;;;;;;;;;;;;;;21.91;53.60;101126.75;7251570;19;155969;-58
2023/05/06 04:42:53;;;;;;;;;;;;;;;21.91;53.60;101120.28;7256412;19;154312;-57
2023/05/06 04:45:21;;;;;;;;;;;;;;;21.89;53.98;101125.41;7258619;19;153375;-57
2023/05/06 04:47:48;;;;;;;;;;;;;;;21.89;53.99;101125.41;7253248;19;155104;-57
2023/05/06 04:50:15;;;;;;;;;;;;;;;21.88;53.73;101127.38;7258172;19;153883;-57
2023/05/06 04:52:42;;;;;;;;;;;;;;;21.86;53.98;101115.59;7256947;19;153030;-57
2023/05/06 04:55:10;;;;;;;;;;;;;;;21.86;53.93;101126.03;7256098;19;154163;-57
2023/05/06 04:57:37;;;;;;;;;;;;;;;21.86;53.76;101135.28;7260099;19;154038;-57
2023/05/06 05:00:05;;;;;;;;;;;;;;;21.86;53.56;101129.66;7251648;19;154484;-58
2023/05/06 05:02:32;;;;;;;;;;;;;;;21.87;53.71;101141.75;7258391;19;154212;-57
2023/05/06 05:04:59;;;;;;;;;;;;;;;21.85;53.87;101138.44;7255084;19;153521;-57
2023/05/06 05:07:26;;;;;;;;;;;;;;;21.84;53.85;101139.59;7255869;19;153654;-57
2023/05/06 05:09:53;;;;;;;;;;;;;;;21.83;53.95;101144.38;7256314;19;154394;-57
2023/05/06 05:12:20;;;;;;;;;;;;;;;21.82;53.73;101148.31;7258051;19;152176;-59
2023/05/06 05:14:47;;;;;;;;;;;;;;;21.81;53.79;101143.00;7253612;19;153981;-57
2023/05/06 05:17:14;;;;;;;;;;;;;;;21.82;53.98;101153.94;7254760;19;153377;-58
2023/05/06 05:19:42;;;;;;;;;;;;;;;21.81;53.80;101146.66;7257865;19;153294;-58
2023/05/06 05:22:09;;;;;;;;;;;;;;;21.80;53.90;101145.00;7255872;19;153910;-57
2023/05/06 05:24:35;;;;;;;;;;;;;;;21.79;53.74;101146.16;7254198;19;152132;-58
2023/05/06 05:27:03;;;;;;;;;;;;;;;21.80;53.93;101149.78;7254510;19;154061;-59
2023/05/06 05:29:30;;;;;;;;;;;;;;;21.79;53.71;101151.78;7254289;19;153057;-58
2023/05/06 05:31:57;;;;;;;;;;;;;;;21.79;54.00;101145.31;7253354;19;153287;-57
2023/05/06 05:34:24;;;;;;;;;;;;;;;21.78;54.15;101147.28;7253034;19;155171;-58
2023/05/06 05:36:51;;;;;;;;;;;;;;;21.78;53.85;101154.88;7257398;19;154128;-57
2023/05/06 05:39:18;;;;;;;;;;;;;;;21.78;53.55;101152.91;7258039;19;154005;-58
2023/05/06 05:41:45;;;;;;;;;;;;;;;21.78;53.61;101163.31;7260652;19;154800;-57
2023/05/06 05:44:12;;;;;;;;;;;;;;;21.77;54.05;101156.03;7252937;19;154945;-57
2023/05/06 05:46:40;;;;;;;;;;;;;;;21.77;53.71;101158.84;7251074;19;155901;-57
2023/05/06 05:49:07;;;;;;;;;;;;;;;21.76;53.81;101160.81;7255659;19;152338;-57
2023/05/06 05:51:34;;;;;;;;;;;;;;;21.76;53.63;101160.81;7253674;19;154572;-58
2023/05/06 05:54:01;;;;;;;;;;;;;;;21.74;53.63;101163.13;7254444;19;154351;-58
2023/05/06 05:56:28;;;;;;;;;;;;;;;21.74;53.92;101161.16;7253768;19;153651;-58
2023/05/06 05:58:55;;;;;;;;;;;;;;;21.74;53.84;101158.34;7255785;19;153611;-57
2023/05/06 06:01:22;;;;;;;;;;;;;;;21.73;53.66;101156.66;7261029;19;154136;-57
2023/05/06 06:03:49;;;;;;;;;;;;;;;21.74;53.82;101165.94;7253453;19;154983;-58
2023/05/06 06:06:17;;;;;;;;;;;;;;;21.74;53.80;101163.13;7249683;19;156258;-58
2023/05/06 06:08:44;;;;;;;;;;;;;;;21.76;53.76;101165.63;7253101;19;152812;-57
2023/05/06 06:11:11;;;;;;;;;;;;;;;21.72;53.88;101166.22;7255643;19;154499;-58
2023/05/06 06:13:38;;;;;;;;;;;;;;;21.73;53.45;101164.25;7247799;19;154441;-58
2023/05/06 06:16:05;;;;;;;;;;;;;;;21.72;53.75;101171.84;7253084;19;152407;-58
2023/05/06 06:18:32;;;;;;;;;;;;;;;21.71;53.81;101167.38;7255247;19;153179;-58
2023/05/06 06:21:00;;;;;;;;;;;;;;;21.72;53.61;101160.59;7253769;19;154868;-57
2023/05/06 06:23:27;;;;;;;;;;;;;;;21.71;53.96;101164.56;7261610;19;154518;-58
2023/05/06 06:25:54;;;;;;;;;;;;;;;21.71;53.97;101166.56;7252304;19;153261;-57
2023/05/06 06:28:21;;;;;;;;;;;;;;;21.70;53.89;101160.09;7256708;19;154028;-58
2023/05/06 06:30:48;;;;;;;;;;;;;;;21.70;53.83;101174.16;7247423;19;153715;-58
2023/05/06 06:33:15;;;;;;;;;;;;;;;21.71;54.03;101169.38;7252125;19;154199;-58
2023/05/06 06:35:42;;;;;;;;;;;;;;;21.70;53.59;101174.16;7250623;19;154286;-58
2023/05/06 06:38:09;;;;;;;;;;;;;;;21.70;54.05;101173.31;7254116;19;153261;-57
2023/05/06 06:40:36;;;;;;;;;;;;;;;21.70;53.73;101173.31;7253118;19;153961;-57
2023/05/06 06:43:03;;;;;;;;;;;;;;;21.68;54.09;101176.44;7254870;19;154467;-57
2023/05/06 06:45:30;;;;;;;;;;;;;;;21.69;54.02;101174.47;7257146;19;153493;-57
2023/05/06 06:47:57;;;;;;;;;;;;;;;21.69;54.13;101174.47;7252785;19;154046;-58
2023/05/06 06:50:25;;;;;;;;;;;;;;;21.68;54.16;101181.22;7252139;19;152714;-58
2023/05/06 06:52:52;;;;;;;;;;;;;;;21.69;54.21;101180.09;7252719;19;154063;-58
2023/05/06 06:55:20;;;;;;;;;;;;;;;21.68;54.04;101176.44;7250463;19;153463;-58
2023/05/06 06:57:47;;;;;;;;;;;;;;;21.67;54.31;101177.56;7255559;19;154248;-58
2023/05/06 07:00:14;;;;;;;;;;;;;;;21.66;54.23;101178.75;7246188;19;153643;-57
2023/05/06 07:02:41;;;;;;;;;;;;;;;21.68;54.19;101184.03;7251940;19;153928;-58
2023/05/06 07:05:08;;;;;;;;;;;;;;;21.68;54.21;101181.22;7252969;19;154779;-58
2023/05/06 07:07:36;;;;;;;;;;;;;;;21.68;53.91;101172.78;7258189;19;156678;-58
2023/05/06 07:10:03;;;;;;;;;;;;;;;21.68;54.27;101176.44;7251282;19;155228;-58
2023/05/06 07:12:30;;;;;;;;;;;;;;;21.67;54.32;101183.19;7252428;19;154087;-61
2023/05/06 07:14:57;;;;;;;;;;;;;;;21.67;53.96;101174.75;7246207;19;152235;-58
2023/05/06 07:17:25;;;;;;;;;;;;;;;21.68;54.05;101182.06;7251851;19;154972;-58
2023/05/06 07:19:52;;;;;;;;;;;;;;;21.67;54.24;101174.75;7248651;19;154236;-59
2023/05/06 07:22:19;;;;;;;;;;;;;;;21.66;53.90;101175.94;7253206;19;152132;-58
2023/05/06 07:24:46;;;;;;;;;;;;;;;21.67;54.02;101171.94;7246951;19;153743;-58
2023/05/06 07:27:13;;;;;;;;;;;;;;;21.67;53.83;101176.75;7252338;19;153325;-58
2023/05/06 07:29:40;;;;;;;;;;;;;;;21.67;53.94;101173.94;7259517;19;154029;-57
2023/05/06 07:32:07;;;;;;;;;;;;;;;21.66;54.37;101172.28;7251730;19;153215;-57
2023/05/06 07:34:35;;;;;;;;;;;;;;;21.66;54.51;101178.75;7250554;19;153329;-57
2023/05/06 07:37:02;;;;;;;;;;;;;;;21.68;54.37;101179.25;7254535;19;154272;-57
2023/05/06 07:39:30;;;;;;;;;;;;;;;21.67;54.35;101174.75;7248845;19;154034;-57
2023/05/06 07:41:57;;;;;;;;;;;;;;;21.69;54.29;101180.94;7248491;19;154348;-57
2023/05/06 07:44:24;;;;;;;;;;;;;;;21.67;54.20;101183.19;7253514;19;153134;-58
2023/05/06 07:46:51;;;;;;;;;;;;;;;21.69;54.23;101183.75;7256649;19;153386;-57
2023/05/06 07:49:18;;;;;;;;;;;;;;;21.69;54.08;101188.53;7263309;19;154309;-57
2023/05/06 07:51:45;;;;;;;;;;;;;;;21.68;54.13;101187.69;7259237;19;153767;-57
2023/05/06 07:54:12;;;;;;;;;;;;;;;21.68;54.15;101184.03;7259533;19;154633;-57
2023/05/06 07:56:39;;;;;;;;;;;;;;;21.67;54.12;101186.00;7260625;19;153388;-58
2023/05/06 07:59:06;;;;;;;;;;;;;;;21.68;53.78;101187.69;7254162;19;154265;-58
2023/05/06 08:01:33;;;;;;;;;;;;;;;21.69;54.29;101191.34;7258255;19;154334;-57
2023/05/06 08:04:00;;;;;;;;;;;;;;;21.68;54.25;101192.47;7258353;19;155670;-57
2023/05/06 08:06:28;;;;;;;;;;;;;;;21.68;54.15;101189.66;7257322;19;154556;-56
2023/05/06 08:08:55;;;;;;;;;;;;;;;21.68;53.89;101198.09;7261155;19;153824;-57
2023/05/06 08:11:22;;;;;;;;;;;;;;;21.67;53.94;101188.00;7265855;19;154042;-56
2023/05/06 08:13:49;;;;;;;;;;;;;;;21.68;54.12;101189.66;7260405;19;153582;-57
2023/05/06 08:16:16;;;;;;;;;;;;;;;21.67;54.27;101186.00;7257381;19;153824;-57
2023/05/06 08:18:43;;;;;;;;;;;;;;;21.70;54.31;101184.56;7259660;19;153741;-57
2023/05/06 08:21:10;;;;;;;;;;;;;;;21.65;54.47;101184.66;7258106;19;153234;-58
2023/05/06 08:23:37;;;;;;;;;;;;;;;21.68;53.92;101179.25;7259728;19;153547;-60
2023/05/06 08:26:05;;;;;;;;;;;;;;;21.66;54.56;101195.63;7257309;19;153708;-57
2023/05/06 08:28:32;;;;;;;;;;;;;;;21.66;54.40;101195.63;7261127;19;154366;-57
2023/05/06 08:30:59;;;;;;;;;;;;;;;21.67;54.22;101197.25;7253984;19;154540;-57
2023/05/06 08:33:27;;;;;;;;;;;;;;;21.68;53.90;101187.69;7265146;19;153984;-58
2023/05/06 08:35:56;;;;;;;;;;;;;;;21.66;54.62;101195.63;7257630;19;152537;-57
2023/05/06 08:38:24;;;;;;;;;;;;;;;21.66;54.17;101195.63;7253784;19;154871;-58
2023/05/06 08:40:53;;;;;;;;;;;;;;;21.65;54.58;101193.94;7253913;19;153981;-57
2023/05/06 08:43:20;;;;;;;;;;;;;;;21.64;54.38;101192.28;7254203;19;154937;-58
2023/05/06 08:45:48;;;;;;;;;;;;;;;21.67;54.28;101190.81;7253402;19;154512;-58
2023/05/06 08:48:15;;;;;;;;;;;;;;;21.66;54.48;101192.81;7256413;19;153722;-58
2023/05/06 08:50:43;;;;;;;;;;;;;;;21.70;54.28;101195.81;7255926;19;152982;-58
2023/05/06 08:53:11;;;;;;;;;;;;;;;21.67;54.18;101196.44;7257325;19;154569;-58
2023/05/06 08:55:41;;;;;;;;;;;;;;;21.67;53.79;101199.25;7264198;19;154685;-58
2023/05/06 08:58:10;;;;;;;;;;;;;;;21.67;53.98;101193.63;7258871;19;153808;-58
2023/05/06 09:00:37;;;;;;;;;;;;;;;21.64;54.24;101192.28;7256655;19;153205;-57
2023/05/06 09:03:04;;;;;;;;;;;;;;;21.65;53.98;101193.94;7258982;19;155475;-58
2023/05/06 09:05:32;;;;;;;;;;;;;;;21.65;54.10;101193.09;7251485;19;154059;-58
2023/05/06 09:07:59;;;;;;;;;;;;;;;21.67;54.12;101190.81;7260365;19;153608;-58
2023/05/06 09:10:30;;;;;;;;;;;;;;;21.71;54.14;101189.88;7256644;19;155003;-58
2023/05/06 09:12:57;;;;;;;;;;;;;;;21.78;54.46;101197.91;7252376;19;155631;-58
2023/05/06 09:15:25;;;;;;;;;;;;;;;21.82;54.03;101187.69;7254755;19;152891;-58
2023/05/06 09:17:53;;;;;;;;;;;;;;;21.90;54.04;101186.13;7261616;19;157817;-58
2023/05/06 09:20:20;;;;;;;;;;;;;;;21.97;54.20;101193.06;7255888;19;153210;-57
2023/05/06 09:22:48;;;;;;;;;;;;;;;22.05;53.67;101192.34;7256396;19;156087;-57
2023/05/06 09:25:15;;;;;;;;;;;;;;;22.14;53.57;101186.81;7253110;19;153934;-57
2023/05/06 09:27:42;;;;;;;;;;;;;;;22.17;53.69;101187.00;7254297;19;153251;-57
2023/05/06 09:30:10;;;;;;;;;;;;;;;22.21;53.60;101190.03;7251054;19;154397;-57
2023/05/06 09:32:38;;;;;;;;;;;;;;;22.25;53.52;101191.06;7255854;19;154370;-58
2023/05/06 09:35:07;;;;;;;;;;;;;;;22.31;53.80;101187.00;7251213;19;153951;-57
2023/05/06 09:37:34;;;;;;;;;;;;;;;22.36;53.53;101192.50;7256777;19;153574;-57
2023/05/06 09:40:01;;;;;;;;;;;;;;;22.42;53.54;101188.44;7257621;19;154961;-57
2023/05/06 09:42:29;;;;;;;;;;;;;;;22.49;53.29;101185.19;7257627;19;152757;-58
2023/05/06 09:44:57;;;;;;;;;;;;;;;22.55;53.32;101184.75;7251499;19;153592;-58
2023/05/06 09:47:31;;;;;;;;;;;;;;;22.61;52.81;101186.31;7252283;19;154191;-60
2023/05/06 09:50:00;;;;;;;;;;;;;;;22.68;52.77;101183.06;7254874;19;154412;-57
2023/05/06 09:52:27;;;;;;;;;;;;;;;22.73;52.39;101177.34;7257044;19;155328;-60
2023/05/06 09:54:54;;;;;;;;;;;;;;;22.77;52.16;101175.53;7253027;19;153852;-60
2023/05/06 09:57:21;;;;;;;;;;;;;;;22.82;52.23;101177.41;7256823;19;153571;-59
2023/05/06 09:59:51;;;;;;;;;;;;;;;22.86;52.44;101181.25;7256113;19;153915;-59
2023/05/06 10:02:18;;;;;;;;;;;;;;;22.89;52.08;101178.66;7253058;19;154104;-59
2023/05/06 10:04:48;;;;;;;;;;;;;;;22.93;51.52;101184.47;7251505;19;154502;-59
2023/05/06 10:07:21;;;;;;;;;;;;;;;22.96;51.81;101179.03;7253289;19;153878;-59
2023/05/06 10:09:50;;;;;;;;;;;;;;;22.99;51.65;101178.38;7253087;19;154319;-59
2023/05/06 10:12:17;;;;;;;;;;;;;;;23.03;51.29;101178.59;7254557;19;154290;-59
2023/05/06 10:14:45;;;;;;;;;;;;;;;23.05;51.06;101182.75;7249789;19;154419;-59
2023/05/06 10:17:13;;;;;;;;;;;;;;;23.08;51.03;101180.47;7250922;19;153563;-61
2023/05/06 10:19:42;;;;;;;;;;;;;;;23.09;50.72;101182.94;7251409;19;152930;-59
2023/05/06 10:22:12;;;;;;;;;;;;;;;23.12;50.70;101176.69;7261185;19;154408;-59
2023/05/06 10:24:45;;;;;;;;;;;;;;;23.14;50.36;101184.78;7252516;19;154288;-58
2023/05/06 10:27:15;;;;;;;;;;;;;;;23.14;50.42;101174.34;7255464;19;153594;-59
2023/05/06 10:29:42;;;;;;;;;;;;;;;23.18;50.13;101180.19;7251675;19;153934;-59
2023/05/06 10:32:10;;;;;;;;;;;;;;;23.18;50.40;101172.56;7251594;19;154974;-59
2023/05/06 10:34:41;;;;;;;;;;;;;;;23.21;50.19;101169.13;7251486;19;153725;-59
2023/05/06 10:37:10;;;;;;;;;;;;;;;23.21;49.98;101168.28;7254687;19;153633;-57
2023/05/06 10:39:39;;;;;;;;;;;;;;;23.19;49.42;101162.13;7253349;19;154479;-57
2023/05/06 10:42:09;;;;;;;;;;;;;;;23.16;49.32;101163.59;7253773;19;152997;-58
2023/05/06 10:44:45;;;;;;;;;;;;;;;23.13;49.34;101167.03;7258091;19;154687;-57
2023/05/06 10:47:12;;;;;;;;;;;;;;;23.12;49.13;101156.94;7253750;19;153494;-57
2023/05/06 10:49:40;;;;;;;;;;;;;;;23.11;49.09;101166.53;7251826;19;153943;-57
2023/05/06 10:52:08;;;;;;;;;;;;;;;23.09;49.09;101154.75;7253107;19;156691;-58
2023/05/06 10:54:46;;;;;;;;;;;;;;;23.07;49.27;101165.53;7251107;19;154161;-57
2023/05/06 10:57:13;;;;;;;;;;;;;;;23.05;49.07;101162.19;7252527;19;154044;-58
2023/05/06 10:59:43;;;;;;;;;;;;;;;23.04;49.11;101163.31;7249879;19;154517;-57
2023/05/06 11:02:11;;;;;;;;;;;;;;;23.01;49.20;101167.63;7253313;19;154426;-57
2023/05/06 11:04:39;;;;;;;;;;;;;;;23.00;49.21;101157.50;7254690;19;154129;-57
2023/05/06 11:07:09;;;;;;;;;;;;;;;23.00;48.93;101153.84;7261032;19;155856;-57
2023/05/06 11:09:39;;;;;;;;;;;;;;;22.97;49.15;101143.22;7251830;19;153145;-57
2023/05/06 11:12:06;;;;;;;;;;;;;;;22.97;48.89;101146.03;7219347;19;155087;-57
2023/05/06 11:14:34;;;;;;;;;;;;;;;22.95;49.10;101146.34;7251628;19;154120;-57
2023/05/06 11:17:02;;;;;;;;;;;;;;;22.94;48.69;101146.69;7250788;19;155375;-57
2023/05/06 11:19:30;;;;;;;;;;;;;;;22.93;49.06;101145.88;7248676;19;154014;-57
2023/05/06 11:21:59;;;;;;;;;;;;;;;22.84;49.34;101135.69;7260968;19;154017;-57
2023/05/06 11:24:27;;;;;;;;;;;;;;;22.83;49.40;101145.28;7256284;19;153817;-57
2023/05/06 11:26:56;;;;;;;;;;;;;;;22.80;49.24;101140.28;7251848;19;154484;-57
2023/05/06 11:29:23;;;;;;;;;;;;;;;22.75;49.42;101143.22;7263901;19;154936;-56
2023/05/06 11:31:52;;;;;;;;;;;;;;;22.72;49.33;101141.03;7257294;19;154261;-57
2023/05/06 11:34:22;;;;;;;;;;;;;;;22.73;49.38;101140.72;7258672;19;154560;-57
2023/05/06 11:36:52;;;;;;;;;;;;;;;22.71;49.59;101147.84;7255608;19;154496;-57
2023/05/06 11:39:19;;;;;;;;;;;;;;;22.71;49.83;101142.19;7254928;19;153453;-58
2023/05/06 11:41:46;;;;;;;;;;;;;;;22.67;49.70;101141.13;7254507;19;153384;-57
2023/05/06 11:44:22;;;;;;;;;;;;;;;22.64;49.92;101142.59;7254994;19;154278;-57
2023/05/06 11:46:50;;;;;;;;;;;;;;;22.58;50.13;101139.06;7254258;19;153147;-57
2023/05/06 11:49:17;;;;;;;;;;;;;;;22.55;50.18;101139.72;7257581;19;153655;-57
2023/05/06 11:51:46;;;;;;;;;;;;;;;22.52;50.35;101137.53;7257415;19;153716;-57
2023/05/06 11:54:17;;;;;;;;;;;;;;;22.55;50.17;101134.06;7259084;19;153755;-58
2023/05/06 11:56:46;;;;;;;;;;;;;;;22.36;51.79;101144.66;7256345;19;153647;-57
2023/05/06 11:59:13;;;;;;;;;;;;;;;22.08;52.39;101135.41;7256458;19;153673;-57
2023/05/06 12:01:41;;;;;;;;;;;;;;;22.04;53.21;101142.81;7260547;19;154291;-57
2023/05/06 12:04:09;;;;;;;;;;;;;;;21.81;54.10;101143.00;7260834;19;155596;-57
2023/05/06 12:06:36;;;;;;;;;;;;;;;21.71;54.60;101142.06;7256786;19;154647;-57
2023/05/06 12:09:05;;;;;;;;;;;;;;;21.68;54.84;101134.25;7220969;19;154142;-58
2023/05/06 12:11:36;;;;;;;;;;;;;;;21.55;55.02;101137.06;7209117;19;155774;-57
2023/05/06 12:14:04;;;;;;;;;;;;;;;21.55;55.77;101137.06;7254745;19;154544;-57
2023/05/06 12:16:32;;;;;;;;;;;;;;;21.62;55.71;101138.31;7259002;19;153828;-57
2023/05/06 12:18:59;;;;;;;;;;;;;;;21.50;56.41;101132.38;7257244;19;153883;-58
2023/05/06 12:21:27;;;;;;;;;;;;;;;21.53;56.77;101133.75;7255127;19;153499;-57
2023/05/06 12:23:55;;;;;;;;;;;;;;;21.45;57.09;101137.25;7258536;19;156141;-57
2023/05/06 12:26:22;;;;;;;;;;;;;;;21.44;57.12;101135.59;7255894;19;154401;-57